createdAt,value
2022-08-14T00:02:10.893Z,88.76
2022-08-14T00:07:14.601Z,88.83
2022-08-14T00:12:23.659Z,88.88
2022-08-14T00:17:28.199Z,89.03
2022-08-14T00:22:56.496Z,89.16
2022-08-14T00:27:54.142Z,89.33
2022-08-14T00:33:17.750Z,89.34
2022-08-14T00:38:29.186Z,89.21
2022-08-14T00:43:34.888Z,89.29
2022-08-14T00:48:38.627Z,89.64
2022-08-14T00:53:44.689Z,89.73
2022-08-14T00:58:55.762Z,89.65
2022-08-14T01:04:52.411Z,89.74
2022-08-14T01:09:35.960Z,89.78
2022-08-14T01:14:38.073Z,89.73
2022-08-14T01:20:08.840Z,89.63
2022-08-14T01:25:46.101Z,89.57
2022-08-14T01:30:50.368Z,89.67
2022-08-14T01:36:03.342Z,89.80
2022-08-14T01:41:11.908Z,89.86
2022-08-14T01:46:24.635Z,89.86
2022-08-14T01:51:28.597Z,89.77
2022-08-14T01:56:42.997Z,89.69
2022-08-14T02:01:58.382Z,89.81
2022-08-14T02:07:15.683Z,89.76
2022-08-14T02:12:29.108Z,89.58
2022-08-14T02:17:33.391Z,89.56
2022-08-14T02:22:43.867Z,89.68
2022-08-14T02:28:24.749Z,89.83
2022-08-14T02:33:12.312Z,89.66
2022-08-14T02:38:30.412Z,89.51
2022-08-14T02:43:46.597Z,89.77
2022-08-14T02:49:01.562Z,89.90
2022-08-14T02:54:09.906Z,90.07
2022-08-14T02:59:33.626Z,89.87
2022-08-14T03:04:36.059Z,89.94
2022-08-14T03:10:24.181Z,90.01
2022-08-14T03:15:20.946Z,90.05
2022-08-14T03:20:36.987Z,90.09
2022-08-14T03:25:40.827Z,90.45
2022-08-14T03:30:57.777Z,90.59
2022-08-14T03:37:51.228Z,90.32
2022-08-14T03:41:38.770Z,90.33
2022-08-14T03:46:54.840Z,90.63
2022-08-14T03:52:00.555Z,91.08
2022-08-14T03:57:08.970Z,90.94
2022-08-14T04:02:32.381Z,90.98
2022-08-14T04:07:36.121Z,91.11
2022-08-14T04:12:38.354Z,91.24
2022-08-14T04:17:58.041Z,91.08
2022-08-14T04:22:59.938Z,91.04
2022-08-14T04:28:05.506Z,90.77
2022-08-14T04:33:17.095Z,90.82
2022-08-14T04:38:41.878Z,90.92
2022-08-14T04:44:00.856Z,90.87
2022-08-14T04:49:04.056Z,90.80
2022-08-14T04:54:10.061Z,91.11
2022-08-14T04:59:15.237Z,91.36
2022-08-14T05:04:20.077Z,91.29
2022-08-14T05:09:23.470Z,91.20
2022-08-14T05:14:45.457Z,91.24
2022-08-14T05:21:54.459Z,91.40
2022-08-14T05:25:13.573Z,91.42
2022-08-14T05:30:18.520Z,91.27
2022-08-14T05:35:21.808Z,91.09
2022-08-14T05:40:23.872Z,91.37
2022-08-14T05:45:27.111Z,91.55
2022-08-14T05:50:29.891Z,91.67
2022-08-14T05:55:32.516Z,92.04
2022-08-14T06:00:40.116Z,92.30
2022-08-14T06:05:43.159Z,92.73
2022-08-14T06:10:45.536Z,93.19
2022-08-14T06:15:48.632Z,93.50
2022-08-14T06:20:50.751Z,93.76
2022-08-14T06:25:53.543Z,94.05
2022-08-14T06:31:10.222Z,94.32
2022-08-14T06:36:13.777Z,94.48
2022-08-14T06:41:20.978Z,94.56
2022-08-14T06:46:42.194Z,94.61
2022-08-14T06:52:05.068Z,94.66
2022-08-14T06:57:07.908Z,94.76
2022-08-14T07:02:29.757Z,94.82
2022-08-14T07:07:36.052Z,94.85
2022-08-14T07:12:56.544Z,94.91
2022-08-14T07:18:19.960Z,94.93
2022-08-14T07:23:24.596Z,94.97
2022-08-14T07:28:36.053Z,95.18
2022-08-14T07:34:04.076Z,95.34
2022-08-14T07:39:12.356Z,95.43
2022-08-14T07:44:29.460Z,95.48
2022-08-14T07:49:34.974Z,95.54
2022-08-14T07:54:36.852Z,95.63
2022-08-14T07:59:51.215Z,95.72
2022-08-14T08:04:59.191Z,95.76
2022-08-14T08:10:46.292Z,95.81
2022-08-14T08:15:53.935Z,95.84
2022-08-14T08:21:03.780Z,96.01
2022-08-14T08:26:06.154Z,96.12
2022-08-14T08:31:33.082Z,96.04
2022-08-14T08:36:46.587Z,96.10
2022-08-14T08:56:50.135Z,91.20
2022-08-14T09:01:58.252Z,92.01
2022-08-14T09:07:10.844Z,92.42
2022-08-14T09:12:15.116Z,92.25
2022-08-14T09:17:17.228Z,91.98
2022-08-14T09:22:35.509Z,91.48
2022-08-14T09:27:45.662Z,90.79
2022-08-14T09:33:23.107Z,90.67
2022-08-14T09:38:46.349Z,90.58
2022-08-14T09:44:20.952Z,90.93
2022-08-14T09:49:39.955Z,91.56
2022-08-14T09:54:48.355Z,92.06
2022-08-14T09:59:50.750Z,92.16
2022-08-14T10:05:10.227Z,92.45
2022-08-14T10:10:23.586Z,92.67
2022-08-14T10:15:30.083Z,92.88
2022-08-14T10:20:40.714Z,92.97
2022-08-14T10:25:49.288Z,92.95
2022-08-14T10:30:54.952Z,92.86
2022-08-14T10:36:00.779Z,93.13
2022-08-14T10:41:14.918Z,92.65
2022-08-14T10:47:37.037Z,91.82
2022-08-14T10:51:42.453Z,90.60
2022-08-14T10:56:58.441Z,88.45
2022-08-14T11:02:00.900Z,85.93
2022-08-14T11:07:02.978Z,84.60
2022-08-14T11:12:36.408Z,81.60
2022-08-14T11:17:32.737Z,78.51
2022-08-14T11:22:52.376Z,78.65
2022-08-14T11:28:00.460Z,82.21
2022-08-14T11:33:05.361Z,84.97
2022-08-14T11:38:08.224Z,84.23
2022-08-14T11:43:10.386Z,85.94
2022-08-14T11:48:58.998Z,84.61
2022-08-14T11:53:42.302Z,85.12
2022-08-14T11:58:51.252Z,83.27
2022-08-14T12:03:57.308Z,80.06
2022-08-14T12:09:00.560Z,83.40
2022-08-14T12:14:13.502Z,78.79
2022-08-14T12:19:43.890Z,72.72
2022-08-14T12:24:50.356Z,67.31
2022-08-14T12:29:54.034Z,65.12
2022-08-14T12:34:56.052Z,62.90
2022-08-14T12:40:20.759Z,58.92
2022-08-14T12:45:33.257Z,68.40
2022-08-14T12:50:42.103Z,73.30
2022-08-14T12:56:22.862Z,64.34
2022-08-14T13:01:27.861Z,78.45
2022-08-14T13:06:30.756Z,70.62
2022-08-14T13:11:45.734Z,66.39
2022-08-14T13:16:50.240Z,79.51
2022-08-14T13:22:04.779Z,82.13
2022-08-14T13:27:12.471Z,82.67
2022-08-14T13:32:18.767Z,84.08
2022-08-14T13:37:22.951Z,85.58
2022-08-14T13:42:31.588Z,82.60
2022-08-14T13:47:33.663Z,70.71
2022-08-14T13:53:05.757Z,62.89
2022-08-14T13:58:30.352Z,60.60
2022-08-14T14:03:37.796Z,62.25
2022-08-14T14:08:54.346Z,66.91
2022-08-14T14:14:01.042Z,78.06
2022-08-14T14:19:09.770Z,79.38
2022-08-14T14:24:15.340Z,69.15
2022-08-14T14:29:23.980Z,65.47
2022-08-14T14:34:30.863Z,61.72
2022-08-14T14:39:37.592Z,60.67
2022-08-14T14:45:04.690Z,63.01
2022-08-14T14:50:11.387Z,62.00
2022-08-14T14:55:17.014Z,61.99
2022-08-14T15:00:20.239Z,65.95
2022-08-14T15:05:22.426Z,65.19
2022-08-14T15:10:27.074Z,65.19
2022-08-14T15:15:36.822Z,59.39
2022-08-14T15:20:41.114Z,65.76
2022-08-14T15:25:52.963Z,75.63
2022-08-14T15:30:57.866Z,83.42
2022-08-14T15:36:02.389Z,86.40
2022-08-14T15:41:08.639Z,84.76
2022-08-14T15:46:10.830Z,85.94
2022-08-14T15:51:32.994Z,89.56
2022-08-14T15:56:43.235Z,90.22
2022-08-14T16:01:55.379Z,81.63
2022-08-14T16:06:58.107Z,88.20
2022-08-14T16:12:00.038Z,86.73
2022-08-14T16:17:03.327Z,92.21
2022-08-14T16:22:59.351Z,94.53
2022-08-14T16:28:03.553Z,95.68
2022-08-14T16:33:59.723Z,95.87
2022-08-14T16:38:53.451Z,95.91
2022-08-14T16:44:31.644Z,95.93
2022-08-14T16:50:05.041Z,95.28
2022-08-14T16:54:58.547Z,94.79
2022-08-14T17:00:07.036Z,94.01
2022-08-14T17:05:29.062Z,94.42
2022-08-14T17:10:32.659Z,93.17
2022-08-14T17:15:36.810Z,92.44
2022-08-14T17:21:01.736Z,92.91
2022-08-14T17:26:06.290Z,92.36
2022-08-14T17:31:09.810Z,91.30
2022-08-14T17:36:26.202Z,90.94
2022-08-14T17:41:36.286Z,91.09
2022-08-14T17:46:55.138Z,90.84
2022-08-14T17:52:17.134Z,90.62
2022-08-14T17:57:29.500Z,90.49
2022-08-14T18:02:39.578Z,90.36
2022-08-14T18:07:59.396Z,90.00
2022-08-14T18:13:02.995Z,90.23
2022-08-14T18:18:08.813Z,90.27
2022-08-14T18:23:31.354Z,90.34
2022-08-14T18:28:51.303Z,91.62
2022-08-14T18:33:56.899Z,90.87
2022-08-14T18:39:34.772Z,90.43
2022-08-14T18:44:58.795Z,90.40
2022-08-14T18:50:26.988Z,90.23
2022-08-14T18:55:30.024Z,90.38
2022-08-14T19:00:33.898Z,90.23
2022-08-14T19:05:47.460Z,90.24
2022-08-14T19:10:57.682Z,90.45
2022-08-14T19:16:16.518Z,90.64
2022-08-14T19:21:42.369Z,90.84
2022-08-14T19:27:26.397Z,91.13
2022-08-14T19:32:40.978Z,91.47
2022-08-14T19:38:03.441Z,91.71
2022-08-14T19:43:55.755Z,91.86
2022-08-14T19:48:56.757Z,92.26
2022-08-14T19:54:13.666Z,92.51
2022-08-14T19:59:21.454Z,92.65
2022-08-14T20:04:45.863Z,92.76
2022-08-14T20:11:03.251Z,92.90
2022-08-14T20:15:15.579Z,92.99
2022-08-14T20:20:31.765Z,93.10
2022-08-14T20:25:45.345Z,93.17
2022-08-14T20:31:36.440Z,93.22
2022-08-14T20:36:40.796Z,93.21
2022-08-14T20:41:49.839Z,93.16
2022-08-14T20:47:00.670Z,93.11
2022-08-14T20:52:18.799Z,93.12
2022-08-14T20:57:22.552Z,93.19
2022-08-14T21:02:50.633Z,93.17
2022-08-14T21:07:57.204Z,93.10
2022-08-14T21:14:08.915Z,93.15
2022-08-14T21:18:44.950Z,93.25
2022-08-14T21:23:55.860Z,91.73
2022-08-14T21:28:59.350Z,91.02
2022-08-14T21:34:02.493Z,91.61
2022-08-14T21:39:16.413Z,91.52
2022-08-14T21:44:20.356Z,91.55
2022-08-14T21:49:40.128Z,92.21
2022-08-14T21:54:49.273Z,92.51
2022-08-14T21:59:52.595Z,92.42
2022-08-14T22:04:57.115Z,92.29
2022-08-14T22:09:59.276Z,92.38
2022-08-14T22:15:01.949Z,92.56
2022-08-14T22:20:07.167Z,92.71
2022-08-14T22:25:10.572Z,92.84
2022-08-14T22:30:19.804Z,92.96
2022-08-14T22:35:23.625Z,93.13
2022-08-14T22:40:56.685Z,93.39
2022-08-14T22:45:55.632Z,93.60
2022-08-14T22:50:58.880Z,93.72
2022-08-14T22:56:04.394Z,93.85
2022-08-14T23:01:12.439Z,93.93
2022-08-14T23:07:02.606Z,94.00
2022-08-14T23:11:59.746Z,94.09
2022-08-14T23:17:12.041Z,94.17
2022-08-14T23:22:16.752Z,93.45
2022-08-14T23:27:20.971Z,92.83
2022-08-14T23:32:35.707Z,93.29
2022-08-14T23:37:38.393Z,93.58
2022-08-14T23:43:03.034Z,93.76
2022-08-14T23:48:09.910Z,93.89
2022-08-14T23:53:48.592Z,93.99
2022-08-14T23:58:53.136Z,94.08
